sensor_id;sensor_type;location;lat;lon;timestamp;temperature;humidity
55721;DHT22;41626;53.098;6.168;2022-10-28T00:00:25;15.10;99.90
55721;DHT22;41626;53.098;6.168;2022-10-28T00:02:50;15.10;99.90
55721;DHT22;41626;53.098;6.168;2022-10-28T00:05:16;15.10;99.90
55721;DHT22;41626;53.098;6.168;2022-10-28T00:07:42;15.00;99.90
55721;DHT22;41626;53.098;6.168;2022-10-28T00:10:08;15.00;99.90
55721;DHT22;41626;53.098;6.168;2022-10-28T00:12:35;15.10;99.90
55721;DHT22;41626;53.098;6.168;2022-10-28T00:15:01;15.10;99.90
55721;DHT22;41626;53.098;6.168;2022-10-28T00:17:26;15.10;99.90
55721;DHT22;41626;53.098;6.168;2022-10-28T00:19:52;15.10;99.90
55721;DHT22;41626;53.098;6.168;2022-10-28T00:22:17;15.10;99.90
55721;DHT22;41626;53.098;6.168;2022-10-28T00:24:43;15.00;99.90
55721;DHT22;41626;53.098;6.168;2022-10-28T00:27:09;15.10;99.90
55721;DHT22;41626;53.098;6.168;2022-10-28T00:29:34;15.00;99.90
55721;DHT22;41626;53.098;6.168;2022-10-28T00:32:00;15.10;99.90
55721;DHT22;41626;53.098;6.168;2022-10-28T00:34:25;15.10;99.90
55721;DHT22;41626;53.098;6.168;2022-10-28T00:36:51;15.20;99.90
55721;DHT22;41626;53.098;6.168;2022-10-28T00:39:22;15.20;99.90
55721;DHT22;41626;53.098;6.168;2022-10-28T00:41:57;15.20;99.90
55721;DHT22;41626;53.098;6.168;2022-10-28T00:52:45;15.10;99.90
55721;DHT22;41626;53.098;6.168;2022-10-28T00:55:14;15.10;99.90
55721;DHT22;41626;53.098;6.168;2022-10-28T00:57:40;15.10;99.90
55721;DHT22;41626;53.098;6.168;2022-10-28T01:00:07;15.10;99.90
55721;DHT22;41626;53.098;6.168;2022-10-28T01:02:43;15.00;99.90
55721;DHT22;41626;53.098;6.168;2022-10-28T01:05:11;15.00;99.90
55721;DHT22;41626;53.098;6.168;2022-10-28T01:07:37;14.90;99.90
55721;DHT22;41626;53.098;6.168;2022-10-28T01:10:02;14.90;99.90
55721;DHT22;41626;53.098;6.168;2022-10-28T01:15:11;14.80;99.90
55721;DHT22;41626;53.098;6.168;2022-10-28T01:23:44;14.70;99.90
55721;DHT22;41626;53.098;6.168;2022-10-28T01:39:37;14.60;99.90
55721;DHT22;41626;53.098;6.168;2022-10-28T01:42:27;14.70;99.90
55721;DHT22;41626;53.098;6.168;2022-10-28T01:47:49;14.60;99.90
55721;DHT22;41626;53.098;6.168;2022-10-28T01:53:06;14.60;99.90
55721;DHT22;41626;53.098;6.168;2022-10-28T01:55:37;14.60;99.90
55721;DHT22;41626;53.098;6.168;2022-10-28T01:58:06;14.60;99.90
55721;DHT22;41626;53.098;6.168;2022-10-28T02:00:33;14.50;99.90
55721;DHT22;41626;53.098;6.168;2022-10-28T02:03:00;14.50;99.90
55721;DHT22;41626;53.098;6.168;2022-10-28T02:05:47;14.50;99.90
55721;DHT22;41626;53.098;6.168;2022-10-28T02:13:50;14.40;99.90
55721;DHT22;41626;53.098;6.168;2022-10-28T02:21:55;14.40;99.90
55721;DHT22;41626;53.098;6.168;2022-10-28T02:24:37;14.40;99.90
55721;DHT22;41626;53.098;6.168;2022-10-28T02:27:07;14.40;99.90
55721;DHT22;41626;53.098;6.168;2022-10-28T02:29:49;14.30;99.90
55721;DHT22;41626;53.098;6.168;2022-10-28T02:32:19;14.20;99.90
55721;DHT22;41626;53.098;6.168;2022-10-28T02:34:47;14.30;99.90
55721;DHT22;41626;53.098;6.168;2022-10-28T02:37:21;14.30;99.90
55721;DHT22;41626;53.098;6.168;2022-10-28T02:39:52;14.40;99.90
55721;DHT22;41626;53.098;6.168;2022-10-28T02:42:24;14.30;99.90
55721;DHT22;41626;53.098;6.168;2022-10-28T02:44:55;14.30;99.90
55721;DHT22;41626;53.098;6.168;2022-10-28T02:47:27;14.30;99.90
55721;DHT22;41626;53.098;6.168;2022-10-28T02:49:58;14.20;99.90
55721;DHT22;41626;53.098;6.168;2022-10-28T02:52:27;14.30;99.90
55721;DHT22;41626;53.098;6.168;2022-10-28T02:55:00;14.30;99.90
55721;DHT22;41626;53.098;6.168;2022-10-28T02:57:34;14.30;99.90
55721;DHT22;41626;53.098;6.168;2022-10-28T03:00:04;14.20;99.90
55721;DHT22;41626;53.098;6.168;2022-10-28T03:02:30;14.30;99.90
55721;DHT22;41626;53.098;6.168;2022-10-28T03:04:56;14.20;99.90
55721;DHT22;41626;53.098;6.168;2022-10-28T03:07:21;14.20;99.90
55721;DHT22;41626;53.098;6.168;2022-10-28T03:09:47;14.20;99.90
55721;DHT22;41626;53.098;6.168;2022-10-28T03:12:13;14.20;99.90
55721;DHT22;41626;53.098;6.168;2022-10-28T03:14:39;14.20;99.90
55721;DHT22;41626;53.098;6.168;2022-10-28T03:17:05;14.30;99.90
55721;DHT22;41626;53.098;6.168;2022-10-28T03:19:32;14.30;99.90
55721;DHT22;41626;53.098;6.168;2022-10-28T03:21:58;14.20;99.90
55721;DHT22;41626;53.098;6.168;2022-10-28T03:24:23;14.30;99.90
55721;DHT22;41626;53.098;6.168;2022-10-28T03:26:49;14.20;99.90
55721;DHT22;41626;53.098;6.168;2022-10-28T03:29:15;14.30;99.90
55721;DHT22;41626;53.098;6.168;2022-10-28T03:31:40;14.20;99.90
55721;DHT22;41626;53.098;6.168;2022-10-28T03:34:06;14.20;99.90
55721;DHT22;41626;53.098;6.168;2022-10-28T03:36:32;14.20;99.90
55721;DHT22;41626;53.098;6.168;2022-10-28T03:38:57;14.20;99.90
55721;DHT22;41626;53.098;6.168;2022-10-28T03:41:23;14.10;99.90
55721;DHT22;41626;53.098;6.168;2022-10-28T03:43:48;14.20;99.90
55721;DHT22;41626;53.098;6.168;2022-10-28T03:46:14;14.10;99.90
55721;DHT22;41626;53.098;6.168;2022-10-28T03:48:40;14.20;99.90
55721;DHT22;41626;53.098;6.168;2022-10-28T03:51:05;14.10;99.90
55721;DHT22;41626;53.098;6.168;2022-10-28T03:53:31;14.20;99.90
55721;DHT22;41626;53.098;6.168;2022-10-28T03:56:00;14.20;99.90
55721;DHT22;41626;53.098;6.168;2022-10-28T03:58:26;14.10;99.90
55721;DHT22;41626;53.098;6.168;2022-10-28T04:00:53;14.10;99.90
55721;DHT22;41626;53.098;6.168;2022-10-28T04:03:20;14.10;99.90
55721;DHT22;41626;53.098;6.168;2022-10-28T04:05:46;14.10;99.90
55721;DHT22;41626;53.098;6.168;2022-10-28T04:08:13;14.10;99.90
55721;DHT22;41626;53.098;6.168;2022-10-28T04:10:39;14.10;99.90
55721;DHT22;41626;53.098;6.168;2022-10-28T04:13:05;14.10;99.90
55721;DHT22;41626;53.098;6.168;2022-10-28T04:15:32;14.10;99.90
55721;DHT22;41626;53.098;6.168;2022-10-28T04:17:58;14.10;99.90
55721;DHT22;41626;53.098;6.168;2022-10-28T04:20:24;14.20;99.90
55721;DHT22;41626;53.098;6.168;2022-10-28T04:22:50;14.10;99.90
55721;DHT22;41626;53.098;6.168;2022-10-28T04:25:16;14.00;99.90
55721;DHT22;41626;53.098;6.168;2022-10-28T04:27:45;14.10;99.90
55721;DHT22;41626;53.098;6.168;2022-10-28T04:30:11;14.10;99.90
55721;DHT22;41626;53.098;6.168;2022-10-28T04:32:38;14.00;99.90
55721;DHT22;41626;53.098;6.168;2022-10-28T04:35:04;14.10;99.90
55721;DHT22;41626;53.098;6.168;2022-10-28T04:37:30;14.00;99.90
55721;DHT22;41626;53.098;6.168;2022-10-28T04:39:55;14.00;99.90
55721;DHT22;41626;53.098;6.168;2022-10-28T04:42:22;14.10;99.90
55721;DHT22;41626;53.098;6.168;2022-10-28T04:44:48;14.10;99.90
55721;DHT22;41626;53.098;6.168;2022-10-28T04:47:14;14.00;99.90
55721;DHT22;41626;53.098;6.168;2022-10-28T04:49:39;14.00;99.90
55721;DHT22;41626;53.098;6.168;2022-10-28T04:52:05;14.00;99.90
55721;DHT22;41626;53.098;6.168;2022-10-28T04:54:30;14.00;99.90
55721;DHT22;41626;53.098;6.168;2022-10-28T04:56:56;14.00;99.90
55721;DHT22;41626;53.098;6.168;2022-10-28T04:59:22;14.00;99.90
55721;DHT22;41626;53.098;6.168;2022-10-28T05:01:47;13.90;99.90
55721;DHT22;41626;53.098;6.168;2022-10-28T05:04:13;14.00;99.90
55721;DHT22;41626;53.098;6.168;2022-10-28T05:06:38;14.00;99.90
55721;DHT22;41626;53.098;6.168;2022-10-28T05:09:04;13.90;99.90
55721;DHT22;41626;53.098;6.168;2022-10-28T05:11:30;14.00;99.90
55721;DHT22;41626;53.098;6.168;2022-10-28T05:13:55;14.00;99.90
55721;DHT22;41626;53.098;6.168;2022-10-28T05:16:21;14.00;99.90
55721;DHT22;41626;53.098;6.168;2022-10-28T05:18:47;14.00;99.90
55721;DHT22;41626;53.098;6.168;2022-10-28T05:21:12;13.90;99.90
55721;DHT22;41626;53.098;6.168;2022-10-28T05:23:38;13.90;99.90
55721;DHT22;41626;53.098;6.168;2022-10-28T05:26:04;13.90;99.90
55721;DHT22;41626;53.098;6.168;2022-10-28T05:28:29;13.90;99.90
55721;DHT22;41626;53.098;6.168;2022-10-28T05:30:55;13.90;99.90
55721;DHT22;41626;53.098;6.168;2022-10-28T05:33:21;13.80;99.90
55721;DHT22;41626;53.098;6.168;2022-10-28T05:35:47;13.80;99.90
55721;DHT22;41626;53.098;6.168;2022-10-28T05:38:12;13.80;99.90
55721;DHT22;41626;53.098;6.168;2022-10-28T05:40:38;13.80;99.90
55721;DHT22;41626;53.098;6.168;2022-10-28T05:43:04;13.80;99.90
55721;DHT22;41626;53.098;6.168;2022-10-28T05:45:30;13.80;99.90
55721;DHT22;41626;53.098;6.168;2022-10-28T05:47:55;13.80;99.90
55721;DHT22;41626;53.098;6.168;2022-10-28T05:50:22;13.80;99.90
55721;DHT22;41626;53.098;6.168;2022-10-28T05:52:48;13.80;99.90
55721;DHT22;41626;53.098;6.168;2022-10-28T05:55:15;13.80;99.90
55721;DHT22;41626;53.098;6.168;2022-10-28T05:57:40;13.70;99.90
55721;DHT22;41626;53.098;6.168;2022-10-28T06:00:07;13.70;99.90
55721;DHT22;41626;53.098;6.168;2022-10-28T06:02:32;13.70;99.90
55721;DHT22;41626;53.098;6.168;2022-10-28T06:04:58;13.70;99.90
55721;DHT22;41626;53.098;6.168;2022-10-28T06:07:24;13.70;99.90
55721;DHT22;41626;53.098;6.168;2022-10-28T06:09:49;13.80;99.90
55721;DHT22;41626;53.098;6.168;2022-10-28T06:12:16;13.70;99.90
55721;DHT22;41626;53.098;6.168;2022-10-28T06:14:41;13.70;99.90
55721;DHT22;41626;53.098;6.168;2022-10-28T06:17:08;13.70;99.90
55721;DHT22;41626;53.098;6.168;2022-10-28T06:19:33;13.70;99.90
55721;DHT22;41626;53.098;6.168;2022-10-28T06:21:59;13.70;99.90
55721;DHT22;41626;53.098;6.168;2022-10-28T06:24:24;13.70;99.90
55721;DHT22;41626;53.098;6.168;2022-10-28T06:26:50;13.70;99.90
55721;DHT22;41626;53.098;6.168;2022-10-28T06:29:16;13.60;99.90
55721;DHT22;41626;53.098;6.168;2022-10-28T06:31:41;13.70;99.90
55721;DHT22;41626;53.098;6.168;2022-10-28T06:34:10;13.70;99.90
55721;DHT22;41626;53.098;6.168;2022-10-28T06:36:36;13.70;99.90
55721;DHT22;41626;53.098;6.168;2022-10-28T06:39:02;13.70;99.90
55721;DHT22;41626;53.098;6.168;2022-10-28T06:41:27;13.60;99.90
55721;DHT22;41626;53.098;6.168;2022-10-28T06:43:53;13.60;99.90
55721;DHT22;41626;53.098;6.168;2022-10-28T06:46:19;13.60;99.90
55721;DHT22;41626;53.098;6.168;2022-10-28T06:48:45;13.60;99.90
55721;DHT22;41626;53.098;6.168;2022-10-28T06:51:10;13.60;99.90
55721;DHT22;41626;53.098;6.168;2022-10-28T06:53:36;13.60;99.90
55721;DHT22;41626;53.098;6.168;2022-10-28T06:56:02;13.60;99.90
55721;DHT22;41626;53.098;6.168;2022-10-28T06:58:27;13.60;99.90
55721;DHT22;41626;53.098;6.168;2022-10-28T07:00:53;13.70;99.90
55721;DHT22;41626;53.098;6.168;2022-10-28T07:03:20;13.70;99.90
55721;DHT22;41626;53.098;6.168;2022-10-28T07:05:46;13.70;99.90
55721;DHT22;41626;53.098;6.168;2022-10-28T07:08:14;13.70;99.90
55721;DHT22;41626;53.098;6.168;2022-10-28T07:10:40;13.80;99.90
55721;DHT22;41626;53.098;6.168;2022-10-28T07:13:06;13.80;99.90
55721;DHT22;41626;53.098;6.168;2022-10-28T07:15:31;13.80;99.90
55721;DHT22;41626;53.098;6.168;2022-10-28T07:17:58;13.90;99.90
55721;DHT22;41626;53.098;6.168;2022-10-28T07:20:25;13.90;99.90
55721;DHT22;41626;53.098;6.168;2022-10-28T07:22:58;14.00;99.90
55721;DHT22;41626;53.098;6.168;2022-10-28T07:25:26;14.00;99.90
55721;DHT22;41626;53.098;6.168;2022-10-28T07:27:52;14.10;99.90
55721;DHT22;41626;53.098;6.168;2022-10-28T07:30:17;14.20;99.90
55721;DHT22;41626;53.098;6.168;2022-10-28T07:32:43;14.30;99.90
55721;DHT22;41626;53.098;6.168;2022-10-28T07:35:08;14.30;99.90
55721;DHT22;41626;53.098;6.168;2022-10-28T07:37:34;14.40;99.90
55721;DHT22;41626;53.098;6.168;2022-10-28T07:40:02;14.40;99.90
55721;DHT22;41626;53.098;6.168;2022-10-28T07:42:28;14.50;99.90
55721;DHT22;41626;53.098;6.168;2022-10-28T07:44:53;14.60;99.90
55721;DHT22;41626;53.098;6.168;2022-10-28T07:47:19;14.60;99.90
55721;DHT22;41626;53.098;6.168;2022-10-28T07:49:46;14.70;99.90
55721;DHT22;41626;53.098;6.168;2022-10-28T07:52:12;14.80;99.90
55721;DHT22;41626;53.098;6.168;2022-10-28T07:54:37;14.90;99.90
55721;DHT22;41626;53.098;6.168;2022-10-28T07:57:03;15.00;99.90
55721;DHT22;41626;53.098;6.168;2022-10-28T07:59:29;15.00;99.90
55721;DHT22;41626;53.098;6.168;2022-10-28T08:01:54;15.10;99.90
55721;DHT22;41626;53.098;6.168;2022-10-28T08:04:20;15.20;99.90
55721;DHT22;41626;53.098;6.168;2022-10-28T08:06:46;15.20;99.90
55721;DHT22;41626;53.098;6.168;2022-10-28T08:09:11;15.20;99.90
55721;DHT22;41626;53.098;6.168;2022-10-28T08:11:37;15.30;99.90
55721;DHT22;41626;53.098;6.168;2022-10-28T08:14:03;15.30;99.90
55721;DHT22;41626;53.098;6.168;2022-10-28T08:16:28;15.40;99.90
55721;DHT22;41626;53.098;6.168;2022-10-28T08:18:54;15.50;99.90
55721;DHT22;41626;53.098;6.168;2022-10-28T08:21:21;15.60;99.90
55721;DHT22;41626;53.098;6.168;2022-10-28T08:23:48;15.70;99.90
55721;DHT22;41626;53.098;6.168;2022-10-28T08:26:15;15.80;99.90
55721;DHT22;41626;53.098;6.168;2022-10-28T08:28:41;15.90;99.90
55721;DHT22;41626;53.098;6.168;2022-10-28T08:31:07;15.90;99.90
55721;DHT22;41626;53.098;6.168;2022-10-28T08:33:35;15.90;99.90
55721;DHT22;41626;53.098;6.168;2022-10-28T08:36:02;16.00;99.90
55721;DHT22;41626;53.098;6.168;2022-10-28T08:38:28;16.10;99.90
55721;DHT22;41626;53.098;6.168;2022-10-28T08:43:50;16.10;99.90
55721;DHT22;41626;53.098;6.168;2022-10-28T08:49:12;16.30;99.90
55721;DHT22;41626;53.098;6.168;2022-10-28T08:51:56;16.30;99.90
55721;DHT22;41626;53.098;6.168;2022-10-28T08:54:36;16.30;99.90
55721;DHT22;41626;53.098;6.168;2022-10-28T08:57:07;16.30;99.90
55721;DHT22;41626;53.098;6.168;2022-10-28T08:59:39;16.30;99.90
55721;DHT22;41626;53.098;6.168;2022-10-28T09:04:43;16.40;99.90
55721;DHT22;41626;53.098;6.168;2022-10-28T09:07:16;16.40;99.90
55721;DHT22;41626;53.098;6.168;2022-10-28T09:09:44;16.40;99.90
55721;DHT22;41626;53.098;6.168;2022-10-28T09:17:53;16.50;99.90
55721;DHT22;41626;53.098;6.168;2022-10-28T09:20:57;16.50;99.90
55721;DHT22;41626;53.098;6.168;2022-10-28T09:23:30;16.50;99.90
55721;DHT22;41626;53.098;6.168;2022-10-28T09:28:59;16.50;99.90
55721;DHT22;41626;53.098;6.168;2022-10-28T09:31:38;16.50;99.90
55721;DHT22;41626;53.098;6.168;2022-10-28T09:35:00;16.50;99.90
55721;DHT22;41626;53.098;6.168;2022-10-28T09:37:14;16.50;99.90
55721;DHT22;41626;53.098;6.168;2022-10-28T09:39:46;16.50;99.90
55721;DHT22;41626;53.098;6.168;2022-10-28T09:42:18;16.50;99.90
55721;DHT22;41626;53.098;6.168;2022-10-28T09:45:10;16.60;99.90
55721;DHT22;41626;53.098;6.168;2022-10-28T09:47:43;16.70;99.90
55721;DHT22;41626;53.098;6.168;2022-10-28T09:50:16;16.70;99.90
55721;DHT22;41626;53.098;6.168;2022-10-28T09:55:36;16.80;99.90
55721;DHT22;41626;53.098;6.168;2022-10-28T09:58:03;16.90;99.90
55721;DHT22;41626;53.098;6.168;2022-10-28T10:00:29;16.90;99.90
55721;DHT22;41626;53.098;6.168;2022-10-28T10:02:56;17.00;99.90
55721;DHT22;41626;53.098;6.168;2022-10-28T10:05:22;17.00;99.90
55721;DHT22;41626;53.098;6.168;2022-10-28T10:08:01;17.00;99.90
55721;DHT22;41626;53.098;6.168;2022-10-28T10:10:35;17.10;99.90
55721;DHT22;41626;53.098;6.168;2022-10-28T10:13:11;17.10;99.90
55721;DHT22;41626;53.098;6.168;2022-10-28T10:15:41;17.20;99.90
55721;DHT22;41626;53.098;6.168;2022-10-28T10:18:13;17.20;99.90
55721;DHT22;41626;53.098;6.168;2022-10-28T10:20:52;17.30;99.90
55721;DHT22;41626;53.098;6.168;2022-10-28T10:23:34;17.40;99.90
55721;DHT22;41626;53.098;6.168;2022-10-28T10:26:26;17.60;99.90
55721;DHT22;41626;53.098;6.168;2022-10-28T10:28:58;17.70;99.90
55721;DHT22;41626;53.098;6.168;2022-10-28T10:31:27;17.80;99.90
55721;DHT22;41626;53.098;6.168;2022-10-28T10:33:56;17.80;99.90
55721;DHT22;41626;53.098;6.168;2022-10-28T10:36:24;17.80;99.90
55721;DHT22;41626;53.098;6.168;2022-10-28T10:38:55;17.80;99.90
55721;DHT22;41626;53.098;6.168;2022-10-28T10:41:41;17.80;99.90
55721;DHT22;41626;53.098;6.168;2022-10-28T10:46:46;17.80;99.90
55721;DHT22;41626;53.098;6.168;2022-10-28T10:49:14;17.80;99.90
55721;DHT22;41626;53.098;6.168;2022-10-28T10:51:53;17.90;99.90
55721;DHT22;41626;53.098;6.168;2022-10-28T10:54:21;18.00;99.90
55721;DHT22;41626;53.098;6.168;2022-10-28T10:56:47;18.10;99.90
55721;DHT22;41626;53.098;6.168;2022-10-28T10:59:31;18.30;99.90
55721;DHT22;41626;53.098;6.168;2022-10-28T11:01:59;18.30;99.90
55721;DHT22;41626;53.098;6.168;2022-10-28T11:04:25;18.30;99.90
55721;DHT22;41626;53.098;6.168;2022-10-28T11:06:54;18.40;99.90
55721;DHT22;41626;53.098;6.168;2022-10-28T11:09:37;18.50;99.90
55721;DHT22;41626;53.098;6.168;2022-10-28T11:12:33;18.50;99.90
55721;DHT22;41626;53.098;6.168;2022-10-28T11:15:02;18.70;99.90
55721;DHT22;41626;53.098;6.168;2022-10-28T11:17:30;18.80;99.90
55721;DHT22;41626;53.098;6.168;2022-10-28T11:19:57;18.80;99.90
55721;DHT22;41626;53.098;6.168;2022-10-28T11:22:46;18.80;99.90
55721;DHT22;41626;53.098;6.168;2022-10-28T11:33:07;19.00;99.90
55721;DHT22;41626;53.098;6.168;2022-10-28T11:35:48;19.00;99.90
55721;DHT22;41626;53.098;6.168;2022-10-28T11:38:34;19.20;99.90
55721;DHT22;41626;53.098;6.168;2022-10-28T11:44:03;19.40;99.90
55721;DHT22;41626;53.098;6.168;2022-10-28T11:52:13;19.40;99.90
55721;DHT22;41626;53.098;6.168;2022-10-28T11:58:08;19.30;99.90
55721;DHT22;41626;53.098;6.168;2022-10-28T12:08:41;19.20;99.90
55721;DHT22;41626;53.098;6.168;2022-10-28T12:11:42;19.10;99.90
55721;DHT22;41626;53.098;6.168;2022-10-28T12:19:31;19.00;99.90
55721;DHT22;41626;53.098;6.168;2022-10-28T12:24:45;19.00;99.90
55721;DHT22;41626;53.098;6.168;2022-10-28T12:27:14;19.00;99.90
55721;DHT22;41626;53.098;6.168;2022-10-28T12:29:47;19.00;99.90
55721;DHT22;41626;53.098;6.168;2022-10-28T12:32:21;19.00;99.90
55721;DHT22;41626;53.098;6.168;2022-10-28T12:34:54;19.00;99.90
55721;DHT22;41626;53.098;6.168;2022-10-28T12:37:26;19.00;99.90
55721;DHT22;41626;53.098;6.168;2022-10-28T12:42:30;19.10;99.90
55721;DHT22;41626;53.098;6.168;2022-10-28T12:44:58;19.10;99.90
55721;DHT22;41626;53.098;6.168;2022-10-28T12:47:42;19.10;99.90
55721;DHT22;41626;53.098;6.168;2022-10-28T12:53:35;19.10;99.90
55721;DHT22;41626;53.098;6.168;2022-10-28T12:56:15;19.20;99.90
55721;DHT22;41626;53.098;6.168;2022-10-28T13:01:31;19.20;99.90
55721;DHT22;41626;53.098;6.168;2022-10-28T13:03:57;19.20;99.90
55721;DHT22;41626;53.098;6.168;2022-10-28T13:24:01;19.40;99.90
55721;DHT22;41626;53.098;6.168;2022-10-28T13:26:34;19.40;99.90
55721;DHT22;41626;53.098;6.168;2022-10-28T13:29:03;19.40;99.90
55721;DHT22;41626;53.098;6.168;2022-10-28T13:31:45;19.40;99.90
55721;DHT22;41626;53.098;6.168;2022-10-28T13:34:13;19.30;99.90
55721;DHT22;41626;53.098;6.168;2022-10-28T13:36:42;19.30;99.90
55721;DHT22;41626;53.098;6.168;2022-10-28T13:39:44;19.30;99.90
55721;DHT22;41626;53.098;6.168;2022-10-28T13:45:00;19.30;99.90
55721;DHT22;41626;53.098;6.168;2022-10-28T13:47:36;19.20;99.90
55721;DHT22;41626;53.098;6.168;2022-10-28T13:52:31;19.20;99.90
55721;DHT22;41626;53.098;6.168;2022-10-28T13:54:57;19.20;99.90
55721;DHT22;41626;53.098;6.168;2022-10-28T13:57:33;19.10;99.90
55721;DHT22;41626;53.098;6.168;2022-10-28T14:00:04;19.10;99.90
55721;DHT22;41626;53.098;6.168;2022-10-28T14:02:39;19.10;99.90
55721;DHT22;41626;53.098;6.168;2022-10-28T14:05:17;19.00;99.90
55721;DHT22;41626;53.098;6.168;2022-10-28T14:07:56;19.00;99.90
55721;DHT22;41626;53.098;6.168;2022-10-28T14:10:30;18.90;99.90
55721;DHT22;41626;53.098;6.168;2022-10-28T14:13:00;19.00;99.90
55721;DHT22;41626;53.098;6.168;2022-10-28T14:15:37;18.90;99.90
55721;DHT22;41626;53.098;6.168;2022-10-28T14:20:35;18.90;99.90
55721;DHT22;41626;53.098;6.168;2022-10-28T14:26:08;18.90;99.90
55721;DHT22;41626;53.098;6.168;2022-10-28T14:36:46;18.80;99.90
55721;DHT22;41626;53.098;6.168;2022-10-28T14:50:44;18.60;99.90
55721;DHT22;41626;53.098;6.168;2022-10-28T14:53:19;18.60;99.90
55721;DHT22;41626;53.098;6.168;2022-10-28T14:55:54;18.50;99.90
55721;DHT22;41626;53.098;6.168;2022-10-28T14:58:23;18.50;99.90
55721;DHT22;41626;53.098;6.168;2022-10-28T15:04:19;18.50;99.90
55721;DHT22;41626;53.098;6.168;2022-10-28T15:06:45;18.50;99.90
55721;DHT22;41626;53.098;6.168;2022-10-28T15:09:22;18.40;99.90
55721;DHT22;41626;53.098;6.168;2022-10-28T15:11:59;18.40;99.90
55721;DHT22;41626;53.098;6.168;2022-10-28T15:14:31;18.40;99.90
55721;DHT22;41626;53.098;6.168;2022-10-28T15:16:58;18.30;99.90
55721;DHT22;41626;53.098;6.168;2022-10-28T15:19:27;18.30;99.90
55721;DHT22;41626;53.098;6.168;2022-10-28T15:24:37;18.20;99.90
55721;DHT22;41626;53.098;6.168;2022-10-28T15:27:02;18.10;99.90
55721;DHT22;41626;53.098;6.168;2022-10-28T15:29:28;18.10;99.90
55721;DHT22;41626;53.098;6.168;2022-10-28T15:32:10;18.10;99.90
55721;DHT22;41626;53.098;6.168;2022-10-28T15:34:39;18.00;99.90
55721;DHT22;41626;53.098;6.168;2022-10-28T15:37:05;18.00;99.90
55721;DHT22;41626;53.098;6.168;2022-10-28T15:39:32;18.00;99.90
55721;DHT22;41626;53.098;6.168;2022-10-28T15:41:57;18.00;99.90
55721;DHT22;41626;53.098;6.168;2022-10-28T15:44:33;17.90;99.90
55721;DHT22;41626;53.098;6.168;2022-10-28T15:47:16;17.90;99.90
55721;DHT22;41626;53.098;6.168;2022-10-28T15:49:43;17.90;99.90
55721;DHT22;41626;53.098;6.168;2022-10-28T15:55:23;17.80;99.90
55721;DHT22;41626;53.098;6.168;2022-10-28T15:57:50;17.80;99.90
55721;DHT22;41626;53.098;6.168;2022-10-28T16:00:26;17.80;99.90
55721;DHT22;41626;53.098;6.168;2022-10-28T16:03:06;17.70;99.90
55721;DHT22;41626;53.098;6.168;2022-10-28T16:11:03;17.60;99.90
55721;DHT22;41626;53.098;6.168;2022-10-28T16:13:37;17.50;99.90
55721;DHT22;41626;53.098;6.168;2022-10-28T16:16:11;17.60;99.90
55721;DHT22;41626;53.098;6.168;2022-10-28T16:18:45;17.50;99.90
55721;DHT22;41626;53.098;6.168;2022-10-28T16:21:23;17.50;99.90
55721;DHT22;41626;53.098;6.168;2022-10-28T16:23:53;17.50;99.90
55721;DHT22;41626;53.098;6.168;2022-10-28T16:26:21;17.50;99.90
55721;DHT22;41626;53.098;6.168;2022-10-28T16:28:47;17.50;99.90
55721;DHT22;41626;53.098;6.168;2022-10-28T16:31:15;17.40;99.90
55721;DHT22;41626;53.098;6.168;2022-10-28T16:33:41;17.40;99.90
55721;DHT22;41626;53.098;6.168;2022-10-28T16:36:07;17.40;99.90
55721;DHT22;41626;53.098;6.168;2022-10-28T16:38:33;17.40;99.90
55721;DHT22;41626;53.098;6.168;2022-10-28T16:41:00;17.40;99.90
55721;DHT22;41626;53.098;6.168;2022-10-28T16:43:27;17.40;99.90
55721;DHT22;41626;53.098;6.168;2022-10-28T16:45:55;17.40;99.90
55721;DHT22;41626;53.098;6.168;2022-10-28T16:48:23;17.40;99.90
55721;DHT22;41626;53.098;6.168;2022-10-28T16:50:58;17.30;99.90
55721;DHT22;41626;53.098;6.168;2022-10-28T16:53:24;17.30;99.90
55721;DHT22;41626;53.098;6.168;2022-10-28T16:55:50;17.30;99.90
55721;DHT22;41626;53.098;6.168;2022-10-28T16:58:17;17.30;99.90
55721;DHT22;41626;53.098;6.168;2022-10-28T17:00:43;17.30;99.90
55721;DHT22;41626;53.098;6.168;2022-10-28T17:03:12;17.30;99.90
55721;DHT22;41626;53.098;6.168;2022-10-28T17:05:41;17.20;99.90
55721;DHT22;41626;53.098;6.168;2022-10-28T17:08:09;17.20;99.90
55721;DHT22;41626;53.098;6.168;2022-10-28T17:10:35;17.20;99.90
55721;DHT22;41626;53.098;6.168;2022-10-28T17:13:01;17.10;99.90
55721;DHT22;41626;53.098;6.168;2022-10-28T17:15:28;17.20;99.90
55721;DHT22;41626;53.098;6.168;2022-10-28T17:17:53;17.00;99.90
55721;DHT22;41626;53.098;6.168;2022-10-28T17:20:19;17.00;99.90
55721;DHT22;41626;53.098;6.168;2022-10-28T17:22:45;17.00;99.90
55721;DHT22;41626;53.098;6.168;2022-10-28T17:25:10;17.10;99.90
55721;DHT22;41626;53.098;6.168;2022-10-28T17:27:37;17.10;99.90
55721;DHT22;41626;53.098;6.168;2022-10-28T17:30:03;17.00;99.90
55721;DHT22;41626;53.098;6.168;2022-10-28T17:32:29;17.00;99.90
55721;DHT22;41626;53.098;6.168;2022-10-28T17:34:54;17.00;99.90
55721;DHT22;41626;53.098;6.168;2022-10-28T17:37:20;16.90;99.90
55721;DHT22;41626;53.098;6.168;2022-10-28T17:39:46;16.90;99.90
55721;DHT22;41626;53.098;6.168;2022-10-28T17:42:11;16.80;99.90
55721;DHT22;41626;53.098;6.168;2022-10-28T17:44:37;16.80;99.90
55721;DHT22;41626;53.098;6.168;2022-10-28T17:47:05;16.80;99.90
55721;DHT22;41626;53.098;6.168;2022-10-28T17:49:31;16.80;99.90
55721;DHT22;41626;53.098;6.168;2022-10-28T17:51:58;16.70;99.90
55721;DHT22;41626;53.098;6.168;2022-10-28T17:54:24;16.80;99.90
55721;DHT22;41626;53.098;6.168;2022-10-28T17:56:49;16.70;99.90
55721;DHT22;41626;53.098;6.168;2022-10-28T17:59:15;16.70;99.90
55721;DHT22;41626;53.098;6.168;2022-10-28T18:01:43;16.70;99.90
55721;DHT22;41626;53.098;6.168;2022-10-28T18:04:08;16.70;99.90
55721;DHT22;41626;53.098;6.168;2022-10-28T18:06:35;16.70;99.90
55721;DHT22;41626;53.098;6.168;2022-10-28T18:09:01;16.70;99.90
55721;DHT22;41626;53.098;6.168;2022-10-28T18:11:27;16.70;99.90
55721;DHT22;41626;53.098;6.168;2022-10-28T18:13:55;16.70;99.90
55721;DHT22;41626;53.098;6.168;2022-10-28T18:16:23;16.60;99.90
55721;DHT22;41626;53.098;6.168;2022-10-28T18:18:50;16.70;99.90
55721;DHT22;41626;53.098;6.168;2022-10-28T18:21:16;16.60;99.90
55721;DHT22;41626;53.098;6.168;2022-10-28T18:23:42;16.60;99.90
55721;DHT22;41626;53.098;6.168;2022-10-28T18:26:14;16.60;99.90
55721;DHT22;41626;53.098;6.168;2022-10-28T18:28:41;16.60;99.90
55721;DHT22;41626;53.098;6.168;2022-10-28T18:31:16;16.60;99.90
55721;DHT22;41626;53.098;6.168;2022-10-28T18:33:42;16.60;99.90
55721;DHT22;41626;53.098;6.168;2022-10-28T18:36:13;16.60;99.90
55721;DHT22;41626;53.098;6.168;2022-10-28T18:38:40;16.60;99.90